createdAt,value
2023-04-10T00:00:11.044Z,66.33
2023-04-10T00:02:40.047Z,66.25
2023-04-10T00:05:09.690Z,66.62
2023-04-10T00:07:38.450Z,66.34
2023-04-10T00:10:08.114Z,66.36
2023-04-10T00:12:37.290Z,66.64
2023-04-10T00:15:08.500Z,67.28
2023-04-10T00:17:37.448Z,66.39
2023-04-10T00:20:07.436Z,66.08
2023-04-10T00:22:36.130Z,66.62
2023-04-10T00:25:06.566Z,66.97
2023-04-10T00:27:35.257Z,66.76
2023-04-10T00:30:04.034Z,66.94
2023-04-10T00:32:34.446Z,66.18
2023-04-10T00:35:03.975Z,66.84
2023-04-10T00:37:33.030Z,66.33
2023-04-10T00:40:01.972Z,66.54
2023-04-10T00:42:30.590Z,67.05
2023-04-10T00:44:59.588Z,67.00
2023-04-10T00:47:28.711Z,67.02
2023-04-10T00:50:01.681Z,66.14
2023-04-10T00:52:31.063Z,66.38
2023-04-10T00:54:59.798Z,67.17
2023-04-10T00:57:28.548Z,67.29
2023-04-10T00:59:57.514Z,67.32
2023-04-10T01:02:26.491Z,67.79
2023-04-10T01:04:55.272Z,67.39
2023-04-10T01:07:34.679Z,67.08
2023-04-10T01:10:07.372Z,67.11
2023-04-10T01:12:45.724Z,68.38
2023-04-10T01:15:16.953Z,68.07
2023-04-10T01:17:51.358Z,68.30
2023-04-10T01:20:23.107Z,68.38
2023-04-10T01:23:09.995Z,67.67
2023-04-10T01:25:44.932Z,68.32
2023-04-10T01:28:49.681Z,68.09
2023-04-10T01:31:21.495Z,68.52
2023-04-10T01:33:52.813Z,68.95
2023-04-10T01:36:26.228Z,68.60
2023-04-10T01:38:56.313Z,68.46
2023-04-10T01:41:26.233Z,67.85
2023-04-10T01:43:57.097Z,67.72
2023-04-10T01:46:26.598Z,66.98
2023-04-10T01:48:56.735Z,66.36
2023-04-10T01:51:26.358Z,66.43
2023-04-10T01:53:55.753Z,67.36
2023-04-10T01:56:25.231Z,65.87
2023-04-10T01:58:53.856Z,66.30
2023-04-10T02:01:29.650Z,66.07
2023-04-10T02:03:59.945Z,65.91
2023-04-10T02:06:35.563Z,66.78
2023-04-10T02:09:10.437Z,66.50
2023-04-10T02:11:43.653Z,66.16
2023-04-10T02:14:13.123Z,66.12
2023-04-10T02:16:44.233Z,66.53
2023-04-10T02:19:13.167Z,67.10
2023-04-10T02:21:43.865Z,66.42
2023-04-10T02:24:12.501Z,66.80
2023-04-10T02:26:48.090Z,66.66
2023-04-10T02:29:17.157Z,67.13
2023-04-10T02:31:47.735Z,67.09
2023-04-10T02:34:16.568Z,66.98
2023-04-10T02:36:45.506Z,67.12
2023-04-10T02:39:14.218Z,66.87
2023-04-10T02:41:46.504Z,67.16
2023-04-10T02:44:15.896Z,66.32
2023-04-10T02:46:44.733Z,66.09
2023-04-10T02:49:14.979Z,66.25
2023-04-10T02:51:43.934Z,66.56
2023-04-10T02:54:12.620Z,66.53
2023-04-10T02:56:43.123Z,67.23
2023-04-10T02:59:12.200Z,67.19
2023-04-10T03:01:41.079Z,66.83
2023-04-10T03:04:09.941Z,67.99
2023-04-10T03:06:40.560Z,67.53
2023-04-10T03:09:09.306Z,67.34
2023-04-10T03:11:38.217Z,67.55
2023-04-10T03:14:09.719Z,67.57
2023-04-10T03:16:38.469Z,67.07
2023-04-10T03:19:07.622Z,67.96
2023-04-10T03:21:36.662Z,67.61
2023-04-10T03:24:07.515Z,67.21
2023-04-10T03:26:36.675Z,67.23
2023-04-10T03:29:05.450Z,68.05
2023-04-10T03:31:35.946Z,67.59
2023-04-10T03:34:04.984Z,67.37
2023-04-10T03:36:33.654Z,68.16
2023-04-10T03:39:02.476Z,67.55
2023-04-10T03:41:33.097Z,68.25
2023-04-10T03:44:05.343Z,67.86
2023-04-10T03:46:34.380Z,67.81
2023-04-10T03:49:03.330Z,67.90
2023-04-10T03:51:32.424Z,67.60
2023-04-10T03:54:01.305Z,67.10
2023-04-10T03:56:30.408Z,67.63
2023-04-10T03:59:01.311Z,67.27
2023-04-10T04:01:30.737Z,67.42
2023-04-10T04:04:01.121Z,67.56
2023-04-10T04:06:31.199Z,67.11
2023-04-10T04:09:01.862Z,68.09
2023-04-10T04:11:31.461Z,68.63
2023-04-10T04:14:01.553Z,68.76
2023-04-10T04:16:30.747Z,67.47
2023-04-10T04:19:00.232Z,68.21
2023-04-10T04:21:29.350Z,68.42
2023-04-10T04:23:58.523Z,67.68
2023-04-10T04:26:27.432Z,68.08
2023-04-10T04:28:58.214Z,68.54
2023-04-10T04:31:33.221Z,68.94
2023-04-10T04:34:03.178Z,69.21
2023-04-10T04:36:32.269Z,69.13
2023-04-10T04:39:01.197Z,68.87
2023-04-10T04:41:32.276Z,68.78
2023-04-10T04:44:02.218Z,68.48
2023-04-10T04:46:32.769Z,68.54
2023-04-10T04:49:01.886Z,68.57
2023-04-10T04:51:30.909Z,68.79
2023-04-10T04:54:00.808Z,68.44
2023-04-10T04:56:30.057Z,68.27
2023-04-10T04:58:59.664Z,67.91
2023-04-10T05:01:28.736Z,68.21
2023-04-10T05:03:59.845Z,68.70
2023-04-10T05:06:31.696Z,68.29
2023-04-10T05:09:02.379Z,67.65
2023-04-10T05:11:31.733Z,66.90
2023-04-10T05:14:01.150Z,68.17
2023-04-10T05:16:30.664Z,66.90
2023-04-10T05:19:02.418Z,65.93
2023-04-10T05:21:39.697Z,66.92
2023-04-10T05:24:09.440Z,66.38
2023-04-10T05:26:38.795Z,67.14
2023-04-10T05:29:07.676Z,67.65
2023-04-10T05:31:36.593Z,67.13
2023-04-10T05:34:07.995Z,67.51
2023-04-10T05:36:37.497Z,66.52
2023-04-10T05:39:06.814Z,66.83
2023-04-10T05:41:36.137Z,64.98
2023-04-10T05:44:05.960Z,65.29
2023-04-10T05:46:35.143Z,65.36
2023-04-10T05:49:07.963Z,66.08
2023-04-10T05:51:37.222Z,67.24
2023-04-10T05:54:06.188Z,66.97
2023-04-10T05:56:40.258Z,67.14
2023-04-10T05:59:09.033Z,66.51
2023-04-10T06:01:40.415Z,67.24
2023-04-10T06:04:11.321Z,67.06
2023-04-10T06:06:40.887Z,67.11
2023-04-10T06:09:09.751Z,66.78
2023-04-10T06:11:40.606Z,67.62
2023-04-10T06:14:09.584Z,67.30
2023-04-10T06:16:39.126Z,66.92
2023-04-10T06:19:07.941Z,65.99
2023-04-10T06:21:39.394Z,66.08
2023-04-10T06:24:08.417Z,65.99
2023-04-10T06:26:38.483Z,66.14
2023-04-10T06:29:07.191Z,65.33
2023-04-10T06:31:36.597Z,65.70
2023-04-10T06:34:05.757Z,65.41
2023-04-10T06:36:35.107Z,65.16
2023-04-10T06:39:06.641Z,64.55
2023-04-10T06:41:35.479Z,64.98
2023-04-10T06:44:06.779Z,64.35
2023-04-10T06:46:35.548Z,64.45
2023-04-10T06:49:04.386Z,64.09
2023-04-10T06:51:33.379Z,63.02
2023-04-10T06:54:01.972Z,63.19
2023-04-10T06:56:33.116Z,62.96
2023-04-10T06:59:01.826Z,61.91
2023-04-10T07:01:30.458Z,61.87
2023-04-10T07:03:59.185Z,62.43
2023-04-10T07:06:29.022Z,61.54
2023-04-10T07:08:57.682Z,61.53
2023-04-10T07:11:26.391Z,60.62
2023-04-10T07:13:58.559Z,59.60
2023-04-10T07:16:27.569Z,58.96
2023-04-10T07:18:57.174Z,59.48
2023-04-10T07:21:27.222Z,59.40
2023-04-10T07:23:56.365Z,58.08
2023-04-10T07:26:25.525Z,56.21
2023-04-10T07:28:54.414Z,57.83
2023-04-10T07:31:25.027Z,55.61
2023-04-10T07:33:53.663Z,55.42
2023-04-10T07:36:22.341Z,56.55
2023-04-10T07:38:51.372Z,56.64
2023-04-10T07:41:20.049Z,57.71
2023-04-10T07:43:48.755Z,58.21
2023-04-10T07:46:18.238Z,57.16
2023-04-10T07:48:49.619Z,55.85
2023-04-10T07:51:18.686Z,55.26
2023-04-10T07:53:47.366Z,56.18
2023-04-10T07:56:19.568Z,55.52
2023-04-10T07:58:48.950Z,54.45
2023-04-10T08:01:17.637Z,53.72
2023-04-10T08:03:48.738Z,51.98
2023-04-10T08:06:17.539Z,52.17
2023-04-10T08:08:46.529Z,48.36
2023-04-10T08:11:25.750Z,46.84
2023-04-10T08:13:54.908Z,46.44
2023-04-10T08:16:25.366Z,45.31
2023-04-10T08:18:57.597Z,44.91
2023-04-10T08:21:27.281Z,44.22
2023-04-10T08:23:57.691Z,42.71
2023-04-10T08:26:27.395Z,42.46
2023-04-10T08:28:58.415Z,42.48
2023-04-10T08:31:28.741Z,42.93
2023-04-10T08:34:01.872Z,44.41
2023-04-10T08:36:31.577Z,45.46
2023-04-10T08:39:00.812Z,44.86
2023-04-10T08:41:29.606Z,43.41
2023-04-10T08:43:58.604Z,42.53
2023-04-10T08:46:27.660Z,44.60
2023-04-10T08:49:06.680Z,44.01
2023-04-10T08:51:39.005Z,43.53
2023-04-10T08:54:09.034Z,42.53
2023-04-10T08:56:39.160Z,43.51
2023-04-10T08:59:09.012Z,42.18
2023-04-10T09:01:38.008Z,42.90
2023-04-10T09:04:08.408Z,42.40
2023-04-10T09:06:37.108Z,42.62
2023-04-10T09:09:07.033Z,42.37
2023-04-10T09:12:00.701Z,42.84
2023-04-10T09:14:31.885Z,40.86
2023-04-10T09:17:18.152Z,41.16
2023-04-10T09:19:49.479Z,41.12
2023-04-10T09:22:18.408Z,41.42
2023-04-10T09:24:48.525Z,41.25
2023-04-10T09:27:32.630Z,39.34
2023-04-10T09:30:02.199Z,39.30
2023-04-10T09:32:41.724Z,40.11
2023-04-10T09:35:13.611Z,40.31
2023-04-10T09:37:43.434Z,40.97
2023-04-10T09:40:21.975Z,39.39
2023-04-10T09:42:50.731Z,38.03
2023-04-10T09:45:20.167Z,41.01
2023-04-10T09:48:02.999Z,39.93
2023-04-10T09:50:40.914Z,39.17
2023-04-10T09:53:10.387Z,38.45
2023-04-10T09:55:41.890Z,37.68
2023-04-10T09:58:11.527Z,38.52
2023-04-10T10:00:42.457Z,38.38
2023-04-10T10:03:17.536Z,36.54
2023-04-10T10:05:49.410Z,36.48
2023-04-10T10:08:18.751Z,35.35
2023-04-10T10:10:49.725Z,35.26
2023-04-10T10:13:24.057Z,35.93
2023-04-10T10:15:58.218Z,34.95
2023-04-10T10:18:34.351Z,35.60
2023-04-10T10:21:05.018Z,35.65
2023-04-10T10:23:34.738Z,35.18
2023-04-10T10:26:06.656Z,35.08
2023-04-10T10:28:37.228Z,36.27
2023-04-10T10:31:06.741Z,35.77
2023-04-10T10:33:37.259Z,36.18
2023-04-10T10:36:08.539Z,36.19
2023-04-10T10:38:41.276Z,36.48
2023-04-10T10:41:14.254Z,35.99
2023-04-10T10:43:51.982Z,34.93
2023-04-10T10:46:26.155Z,35.89
2023-04-10T10:48:58.933Z,35.41
2023-04-10T10:51:45.384Z,34.76
2023-04-10T10:54:30.888Z,35.67
2023-04-10T10:56:59.611Z,36.33
2023-04-10T10:59:59.359Z,36.17
2023-04-10T11:02:28.149Z,38.86
2023-04-10T11:04:57.256Z,41.83
2023-04-10T11:08:06.027Z,42.67
2023-04-10T11:11:05.657Z,42.06
2023-04-10T11:13:35.083Z,42.48
2023-04-10T11:16:05.349Z,38.44
2023-04-10T11:19:13.220Z,38.82
2023-04-10T11:22:05.385Z,37.67
2023-04-10T11:24:57.660Z,37.59
2023-04-10T11:27:46.246Z,38.20
2023-04-10T11:30:36.973Z,38.38
2023-04-10T11:33:06.700Z,38.35
2023-04-10T11:35:35.483Z,36.75
2023-04-10T11:38:18.148Z,36.86
2023-04-10T11:41:07.187Z,36.23
2023-04-10T11:43:37.654Z,36.13
2023-04-10T11:46:08.681Z,36.41
2023-04-10T11:48:38.019Z,35.61
2023-04-10T11:51:14.000Z,35.68
2023-04-10T11:53:43.172Z,36.27
2023-04-10T11:56:21.129Z,37.03
2023-04-10T11:58:54.964Z,39.22
2023-04-10T12:01:24.597Z,38.72
2023-04-10T12:03:53.790Z,39.61
2023-04-10T12:06:23.168Z,38.78
2023-04-10T12:08:52.013Z,38.36
2023-04-10T12:11:22.830Z,37.81
2023-04-10T12:13:55.777Z,37.20
2023-04-10T12:16:26.546Z,37.72
2023-04-10T12:18:55.833Z,36.93
2023-04-10T12:21:24.817Z,36.61
2023-04-10T12:23:53.442Z,37.46
2023-04-10T12:26:22.034Z,38.96
2023-04-10T12:28:54.831Z,40.36
2023-04-10T12:31:31.094Z,41.99
2023-04-10T12:34:02.240Z,41.84
2023-04-10T12:36:32.164Z,40.10
2023-04-10T12:39:05.335Z,39.33
2023-04-10T12:41:35.139Z,39.79
2023-04-10T12:44:12.657Z,40.82
2023-04-10T12:46:41.839Z,39.63
2023-04-10T12:49:12.437Z,39.76
2023-04-10T12:51:48.674Z,40.28
2023-04-10T12:54:31.399Z,40.90
2023-04-10T12:57:00.616Z,40.95
2023-04-10T12:59:31.623Z,40.12
2023-04-10T13:02:00.640Z,40.61
2023-04-10T13:04:31.195Z,40.95
2023-04-10T13:07:00.042Z,39.36
2023-04-10T13:09:28.960Z,39.40
2023-04-10T13:11:58.477Z,39.86
2023-04-10T13:14:27.133Z,38.40
2023-04-10T13:16:57.444Z,38.55
2023-04-10T13:19:26.207Z,37.04
2023-04-10T13:21:54.857Z,37.13
2023-04-10T13:24:23.977Z,36.90
2023-04-10T13:26:52.612Z,36.23
2023-04-10T13:29:21.277Z,35.75
2023-04-10T13:31:50.400Z,35.96
2023-04-10T13:34:24.606Z,35.99
2023-04-10T13:36:53.554Z,34.20
2023-04-10T13:39:22.298Z,33.84
2023-04-10T13:41:51.064Z,34.72
2023-04-10T13:44:20.039Z,32.63
2023-04-10T13:46:48.737Z,32.93
2023-04-10T13:49:18.018Z,33.48
2023-04-10T13:51:48.574Z,32.51
2023-04-10T13:54:17.770Z,32.90
2023-04-10T13:56:46.962Z,32.83
2023-04-10T13:59:15.890Z,32.90
2023-04-10T14:01:44.640Z,33.05
2023-04-10T14:04:13.582Z,32.30
2023-04-10T14:06:42.189Z,33.29
2023-04-10T14:09:12.214Z,32.80
2023-04-10T14:11:41.265Z,33.00
2023-04-10T14:14:09.868Z,31.56
2023-04-10T14:16:38.515Z,31.66
2023-04-10T14:19:10.008Z,32.27
2023-04-10T14:21:40.523Z,32.39
2023-04-10T14:24:09.360Z,32.42
2023-04-10T14:26:39.350Z,33.31
2023-04-10T14:29:09.077Z,31.68
2023-04-10T14:31:50.569Z,31.73
2023-04-10T14:34:23.443Z,32.39
2023-04-10T14:36:56.003Z,32.35
2023-04-10T14:39:25.637Z,30.84
2023-04-10T14:41:57.071Z,30.71
2023-04-10T14:44:25.523Z,30.57
2023-04-10T14:46:54.361Z,29.16
2023-04-10T14:49:23.092Z,29.34
2023-04-10T14:51:51.736Z,29.18
2023-04-10T14:54:22.037Z,29.54
2023-04-10T14:56:50.931Z,28.81
2023-04-10T14:59:21.253Z,29.39
2023-04-10T15:01:50.057Z,28.82
2023-04-10T15:04:18.892Z,28.33
2023-04-10T15:06:47.711Z,27.95
2023-04-10T15:09:16.407Z,28.37
2023-04-10T15:11:45.165Z,28.65
2023-04-10T15:14:14.165Z,29.03
2023-04-10T15:16:44.205Z,30.61
2023-04-10T15:19:12.976Z,31.65
2023-04-10T15:21:44.692Z,31.64
2023-04-10T15:24:13.423Z,32.37
2023-04-10T15:26:45.078Z,33.45
2023-04-10T15:29:13.875Z,32.04
2023-04-10T15:31:46.742Z,33.64
2023-04-10T15:34:15.388Z,32.71
2023-04-10T15:36:44.262Z,32.60
2023-04-10T15:39:13.024Z,33.62
2023-04-10T15:41:41.643Z,33.52
2023-04-10T15:44:11.812Z,33.32
2023-04-10T15:46:40.490Z,33.40
2023-04-10T15:49:10.570Z,33.47
2023-04-10T15:51:39.561Z,33.36
2023-04-10T15:54:09.095Z,33.38
2023-04-10T15:56:40.784Z,33.49
2023-04-10T15:59:09.652Z,33.47
2023-04-10T16:01:38.279Z,33.52
2023-04-10T16:04:07.365Z,33.36
2023-04-10T16:06:37.440Z,33.87
2023-04-10T16:09:15.283Z,33.66
2023-04-10T16:11:53.847Z,33.58
2023-04-10T16:14:22.678Z,34.38
2023-04-10T16:16:51.997Z,33.84
2023-04-10T16:19:21.205Z,33.66
2023-04-10T16:21:53.684Z,34.29
2023-04-10T16:24:23.627Z,34.57
2023-04-10T16:26:55.205Z,34.30
2023-04-10T16:29:24.254Z,34.15
2023-04-10T16:31:53.079Z,34.23
2023-04-10T16:34:22.022Z,34.61
2023-04-10T16:36:52.283Z,34.40
2023-04-10T16:39:21.010Z,34.80
2023-04-10T16:41:51.912Z,34.85
2023-04-10T16:44:20.733Z,34.98
2023-04-10T16:46:49.448Z,35.28
2023-04-10T16:49:18.173Z,35.05
2023-04-10T16:51:49.229Z,34.78
2023-04-10T16:54:19.427Z,35.31
2023-04-10T16:56:51.654Z,35.07
2023-04-10T16:59:20.304Z,35.38
2023-04-10T17:01:49.226Z,35.40
2023-04-10T17:04:21.196Z,35.59
2023-04-10T17:06:50.298Z,35.53
2023-04-10T17:09:22.701Z,35.36
2023-04-10T17:11:53.260Z,35.71
2023-04-10T17:14:22.065Z,36.03
2023-04-10T17:16:54.219Z,36.34
2023-04-10T17:19:23.188Z,36.23
2023-04-10T17:21:52.339Z,36.19
2023-04-10T17:24:22.788Z,36.65
2023-04-10T17:26:51.704Z,36.81
2023-04-10T17:29:22.407Z,36.46
2023-04-10T17:31:51.316Z,36.69
2023-04-10T17:34:20.203Z,36.85
2023-04-10T17:36:49.760Z,37.34
2023-04-10T17:39:18.826Z,37.14
2023-04-10T17:41:49.153Z,36.88
2023-04-10T17:44:18.234Z,37.65
2023-04-10T17:46:47.491Z,38.51
2023-04-10T17:49:16.441Z,38.36
2023-04-10T17:51:45.491Z,39.28
2023-04-10T17:54:14.406Z,38.75
2023-04-10T17:56:43.710Z,38.77
2023-04-10T17:59:14.355Z,39.21
2023-04-10T18:01:43.558Z,39.38
2023-04-10T18:04:12.991Z,40.26
2023-04-10T18:06:42.380Z,40.16
2023-04-10T18:09:11.565Z,40.22
2023-04-10T18:11:41.085Z,41.00
2023-04-10T18:14:10.828Z,41.28
2023-04-10T18:16:41.839Z,41.16
2023-04-10T18:19:11.115Z,42.16
2023-04-10T18:21:41.977Z,42.25
2023-04-10T18:24:15.714Z,42.17
2023-04-10T18:26:45.455Z,42.72
2023-04-10T18:29:15.001Z,42.85
2023-04-10T18:31:45.293Z,43.63
2023-04-10T18:34:14.668Z,43.65
2023-04-10T18:36:45.620Z,44.50
2023-04-10T18:39:18.215Z,44.63
2023-04-10T18:41:47.113Z,45.27
2023-04-10T18:44:16.695Z,45.42
2023-04-10T18:46:54.122Z,45.97
2023-04-10T18:49:31.516Z,45.37
2023-04-10T18:52:00.613Z,45.41
2023-04-10T18:54:30.803Z,45.45
2023-04-10T18:56:59.749Z,45.59
2023-04-10T18:59:30.978Z,46.21
2023-04-10T19:02:04.446Z,47.11
2023-04-10T19:04:34.908Z,45.69
2023-04-10T19:07:04.266Z,45.64
2023-04-10T19:09:33.755Z,46.42
2023-04-10T19:12:02.705Z,46.49
2023-04-10T19:14:32.501Z,47.22
2023-04-10T19:17:06.138Z,47.58
2023-04-10T19:19:38.397Z,47.48
2023-04-10T19:22:07.077Z,47.54
2023-04-10T19:24:36.508Z,47.55
2023-04-10T19:27:05.482Z,48.21
2023-04-10T19:29:34.596Z,49.50
2023-04-10T19:32:05.923Z,50.55
2023-04-10T19:34:34.698Z,50.59
2023-04-10T19:37:04.938Z,50.58
2023-04-10T19:39:33.543Z,50.73
2023-04-10T19:42:03.268Z,51.00
2023-04-10T19:44:32.307Z,52.29
2023-04-10T19:47:01.191Z,52.24
2023-04-10T19:49:35.772Z,52.82
2023-04-10T19:52:04.766Z,54.07
2023-04-10T19:54:33.420Z,54.20
2023-04-10T19:57:02.831Z,54.58
2023-04-10T19:59:32.021Z,55.07
2023-04-10T20:02:01.362Z,55.42
2023-04-10T20:04:30.837Z,56.93
2023-04-10T20:07:04.952Z,57.43
2023-04-10T20:09:34.068Z,57.50
2023-04-10T20:12:06.532Z,55.68
2023-04-10T20:14:45.042Z,55.65
2023-04-10T20:17:13.817Z,55.42
2023-04-10T20:19:42.885Z,55.28
2023-04-10T20:22:12.968Z,55.01
2023-04-10T20:24:41.915Z,55.76
2023-04-10T20:27:10.613Z,55.47
2023-04-10T20:29:39.304Z,55.58
2023-04-10T20:32:09.727Z,55.41
2023-04-10T20:34:38.674Z,55.74
2023-04-10T20:37:07.314Z,56.49
2023-04-10T20:39:38.521Z,56.45
2023-04-10T20:42:07.566Z,56.80
2023-04-10T20:44:37.701Z,57.27
2023-04-10T20:47:06.883Z,57.44
2023-04-10T20:49:37.436Z,56.86
2023-04-10T20:52:06.912Z,56.53
2023-04-10T20:54:37.326Z,56.57
2023-04-10T20:57:06.496Z,56.30
2023-04-10T20:59:37.377Z,56.79
2023-04-10T21:02:06.484Z,56.79
2023-04-10T21:04:35.161Z,57.06
2023-04-10T21:07:03.811Z,56.99
2023-04-10T21:09:32.781Z,56.54
2023-04-10T21:12:02.762Z,57.74
2023-04-10T21:14:31.556Z,58.67
2023-04-10T21:17:00.566Z,58.57
2023-04-10T21:19:32.102Z,58.19
2023-04-10T21:22:01.126Z,58.50
2023-04-10T21:24:30.164Z,58.36
2023-04-10T21:26:58.814Z,58.57
2023-04-10T21:29:29.220Z,58.61
2023-04-10T21:31:58.255Z,59.21
2023-04-10T21:34:27.071Z,59.23
2023-04-10T21:36:55.966Z,58.91
2023-04-10T21:39:24.581Z,58.99
2023-04-10T21:41:53.510Z,59.17
2023-04-10T21:44:22.204Z,59.59
2023-04-10T21:46:52.177Z,60.32
2023-04-10T21:49:21.044Z,60.01
2023-04-10T21:51:49.737Z,60.39
2023-04-10T21:54:18.428Z,60.54
2023-04-10T21:56:47.453Z,61.12
2023-04-10T21:59:16.193Z,60.50
2023-04-10T22:01:45.135Z,60.88
2023-04-10T22:04:15.763Z,62.62
2023-04-10T22:06:44.505Z,62.52
2023-04-10T22:09:13.707Z,61.60
2023-04-10T22:11:42.851Z,60.91
2023-04-10T22:14:17.051Z,60.77
2023-04-10T22:16:47.099Z,61.52
2023-04-10T22:19:17.100Z,61.80
2023-04-10T22:21:45.763Z,62.04
2023-04-10T22:24:14.769Z,61.59
2023-04-10T22:26:46.004Z,61.88
2023-04-10T22:29:17.959Z,62.01
2023-04-10T22:31:46.690Z,61.99
2023-04-10T22:34:16.988Z,62.80
2023-04-10T22:36:45.685Z,63.08
2023-04-10T22:39:15.134Z,62.68
2023-04-10T22:41:44.313Z,63.50
2023-04-10T22:44:13.566Z,61.52
2023-04-10T22:46:42.377Z,62.33
2023-04-10T22:49:11.416Z,61.29
2023-04-10T22:51:41.809Z,62.42
2023-04-10T22:54:10.580Z,62.37
2023-04-10T22:56:39.710Z,61.40
2023-04-10T22:59:08.420Z,61.68
2023-04-10T23:01:37.154Z,61.92
2023-04-10T23:04:06.240Z,62.06
2023-04-10T23:06:34.891Z,62.63
2023-04-10T23:09:05.067Z,61.58
2023-04-10T23:11:36.606Z,62.23
2023-04-10T23:14:05.086Z,62.27
2023-04-10T23:16:33.938Z,62.50
2023-04-10T23:19:02.557Z,62.40
2023-04-10T23:21:31.617Z,62.99
2023-04-10T23:24:00.548Z,62.12
2023-04-10T23:26:32.382Z,62.99
2023-04-10T23:29:01.739Z,62.30
2023-04-10T23:31:30.496Z,62.40
2023-04-10T23:33:59.174Z,62.73
2023-04-10T23:36:28.254Z,62.60
2023-04-10T23:38:56.870Z,63.12
2023-04-10T23:41:25.621Z,63.93
2023-04-10T23:43:56.034Z,62.92
2023-04-10T23:46:24.832Z,63.06
2023-04-10T23:48:54.512Z,62.81
2023-04-10T23:51:23.528Z,62.78
2023-04-10T23:53:52.516Z,63.14
2023-04-10T23:56:21.600Z,63.79
2023-04-10T23:58:53.341Z,63.71
